Time;durP1;ratioP1;P1;durP2;ratioP2;P2;SDS_P1;SDS_P2;PMS_P1;PMS_P2;Temp;Humidity;BMP_temperature;BMP_pressure;BME280_temperature;BME280_humidity;BME280_pressure;Samples;Min_cycle;Max_cycle;Signal;HPM_P1;HPM_P2
2023/04/22 00:02:04;;;;;;;5.68;3.10;;;13.10;99.90;;;;;;4991147;28;20026;-74
2023/04/22 00:04:32;;;;;;;5.40;2.70;;;13.10;99.90;;;;;;4991967;28;20081;-75
2023/04/22 00:07:01;;;;;;;4.07;2.28;;;13.20;99.90;;;;;;4997391;28;20317;-75
2023/04/22 00:09:27;;;;;;;3.35;2.55;;;13.10;99.90;;;;;;4993228;28;20027;-75
2023/04/22 00:11:52;;;;;;;4.80;2.50;;;13.10;99.90;;;;;;4991876;28;20043;-75
2023/04/22 00:14:21;;;;;;;4.80;2.58;;;13.10;99.90;;;;;;4986781;28;20105;-75
2023/04/22 00:16:50;;;;;;;4.35;2.70;;;13.10;99.90;;;;;;4991454;28;20502;-74
2023/04/22 00:19:28;;;;;;;5.75;2.90;;;13.10;99.90;;;;;;4993377;28;20420;-75
2023/04/22 00:21:56;;;;;;;4.22;3.20;;;13.10;99.90;;;;;;4991527;28;20323;-76
2023/04/22 00:24:22;;;;;;;4.40;3.28;;;13.10;99.90;;;;;;5005093;28;20058;-76
2023/04/22 00:26:51;;;;;;;4.13;2.85;;;13.10;99.90;;;;;;4999178;28;20022;-76
2023/04/22 00:29:16;;;;;;;4.93;2.72;;;13.00;99.90;;;;;;5007579;28;20030;-76
2023/04/22 00:31:42;;;;;;;4.93;3.00;;;13.00;99.90;;;;;;4993391;28;20033;-76
2023/04/22 00:34:20;;;;;;;4.20;3.20;;;13.00;99.90;;;;;;4993386;28;20038;-77
2023/04/22 00:36:50;;;;;;;8.90;3.80;;;13.00;99.90;;;;;;4995746;28;20030;-76
2023/04/22 00:39:16;;;;;;;11.32;4.63;;;12.90;99.90;;;;;;4991845;28;20088;-75
2023/04/22 00:41:42;;;;;;;6.40;4.45;;;12.90;99.90;;;;;;4994526;28;20022;-76
2023/04/22 00:44:09;;;;;;;9.23;4.85;;;12.80;99.90;;;;;;4998500;28;20017;-77
2023/04/22 00:46:38;;;;;;;8.20;4.60;;;12.70;99.90;;;;;;4999485;28;20030;-76
2023/04/22 00:49:04;;;;;;;8.50;4.93;;;12.70;99.90;;;;;;4993735;28;20030;-76
2023/04/22 00:51:31;;;;;;;7.28;5.20;;;12.70;99.90;;;;;;4995470;28;20391;-76
2023/04/22 00:54:04;;;;;;;11.65;4.75;;;12.60;99.90;;;;;;5009281;28;20033;-77
2023/04/22 00:56:35;;;;;;;9.07;4.55;;;12.60;99.90;;;;;;4984815;28;20484;-76
2023/04/22 00:59:01;;;;;;;7.18;4.72;;;12.50;99.90;;;;;;4992258;28;20651;-76
2023/04/22 01:01:28;;;;;;;7.00;4.60;;;12.50;99.90;;;;;;4990656;28;20065;-76
2023/04/22 01:03:55;;;;;;;9.07;5.15;;;12.50;99.90;;;;;;4987645;28;20019;-76
2023/04/22 01:06:22;;;;;;;8.05;5.05;;;12.40;99.90;;;;;;4989355;28;20432;-76
2023/04/22 01:08:57;;;;;;;7.85;5.05;;;12.40;99.90;;;;;;4995082;28;20030;-76
2023/04/22 01:11:26;;;;;;;8.15;4.57;;;12.40;99.90;;;;;;4995718;28;20400;-76
2023/04/22 01:14:02;;;;;;;7.22;4.60;;;12.40;99.90;;;;;;4994625;28;20026;-76
2023/04/22 01:16:30;;;;;;;8.50;4.55;;;12.30;99.90;;;;;;4991383;28;20108;-75
2023/04/22 01:19:10;;;;;;;6.35;4.63;;;12.30;99.90;;;;;;4991794;28;20022;-75
2023/04/22 01:21:47;;;;;;;11.68;5.05;;;12.30;99.90;;;;;;4993667;28;20498;-75
2023/04/22 01:24:20;;;;;;;6.70;4.45;;;12.30;99.90;;;;;;4990353;28;20026;-75
2023/04/22 01:26:48;;;;;;;6.80;4.80;;;12.20;99.90;;;;;;4991036;28;20454;-76
2023/04/22 01:29:14;;;;;;;7.65;4.90;;;12.20;99.90;;;;;;4987485;28;20030;-74
2023/04/22 01:31:40;;;;;;;7.43;5.43;;;12.20;99.90;;;;;;4985447;28;20027;-75
2023/04/22 01:34:06;;;;;;;7.70;4.90;;;12.10;99.90;;;;;;4985557;28;20554;-76
2023/04/22 01:36:32;;;;;;;7.22;5.05;;;12.10;99.90;;;;;;5000897;28;20063;-76
2023/04/22 01:38:59;;;;;;;7.20;4.95;;;12.10;99.90;;;;;;4983822;28;20087;-75
2023/04/22 01:41:37;;;;;;;8.55;5.20;;;12.10;99.90;;;;;;4988806;28;20049;-75
2023/04/22 01:44:03;;;;;;;7.10;4.40;;;12.10;99.90;;;;;;4994395;28;20026;-75
2023/04/22 01:46:29;;;;;;;8.13;4.30;;;12.00;99.90;;;;;;4987614;28;20047;-76
2023/04/22 01:48:58;;;;;;;5.53;4.20;;;12.00;99.90;;;;;;4986197;28;20065;-75
2023/04/22 01:51:23;;;;;;;6.28;4.18;;;12.00;99.90;;;;;;5002240;28;20080;-75
2023/04/22 01:53:50;;;;;;;8.35;4.45;;;12.00;99.90;;;;;;4988379;28;20407;-76
2023/04/22 01:56:16;;;;;;;8.23;4.45;;;12.00;99.90;;;;;;4986418;28;20041;-77
2023/04/22 01:58:41;;;;;;;5.78;4.22;;;11.90;99.90;;;;;;4997265;28;20439;-75
2023/04/22 02:01:11;;;;;;;7.13;4.57;;;11.90;99.90;;;;;;4990489;28;20030;-76
2023/04/22 02:03:40;;;;;;;7.72;4.40;;;11.90;99.90;;;;;;5002527;28;20022;-75
2023/04/22 02:06:15;;;;;;;7.63;3.90;;;11.90;99.90;;;;;;5007016;28;20438;-75
2023/04/22 02:08:40;;;;;;;6.15;4.10;;;11.80;99.90;;;;;;4986688;28;20037;-75
2023/04/22 02:11:06;;;;;;;5.22;4.13;;;11.80;99.90;;;;;;4992575;28;20018;-76
2023/04/22 02:13:39;;;;;;;10.35;4.20;;;11.80;99.90;;;;;;4989168;28;20495;-75
2023/04/22 02:16:06;;;;;;;6.18;3.88;;;11.80;99.90;;;;;;4985970;28;20029;-76
2023/04/22 02:18:31;;;;;;;6.18;4.32;;;11.80;99.90;;;;;;4986746;28;20022;-75
2023/04/22 02:21:00;;;;;;;10.55;4.43;;;11.70;99.90;;;;;;4989791;28;20041;-76
2023/04/22 02:23:36;;;;;;;5.80;4.03;;;11.70;99.90;;;;;;4986035;28;20026;-76
2023/04/22 02:26:04;;;;;;;6.85;4.63;;;11.70;99.90;;;;;;4988636;28;20074;-76
2023/04/22 02:28:30;;;;;;;7.57;4.30;;;11.60;99.90;;;;;;4988174;28;20469;-75
2023/04/22 02:31:02;;;;;;;8.18;4.40;;;11.60;99.90;;;;;;4996697;28;20031;-75
2023/04/22 02:33:31;;;;;;;8.18;4.28;;;11.50;99.90;;;;;;4986515;28;20027;-76
2023/04/22 02:36:03;;;;;;;8.88;4.57;;;11.50;99.90;;;;;;4986773;28;20037;-76
2023/04/22 02:38:28;;;;;;;8.15;4.40;;;11.40;99.90;;;;;;4989771;28;20103;-75
2023/04/22 02:40:54;;;;;;;8.32;4.80;;;11.40;99.90;;;;;;4986665;28;20030;-75
2023/04/22 02:43:29;;;;;;;8.65;4.68;;;11.40;99.90;;;;;;4990477;28;20041;-75
2023/04/22 02:46:00;;;;;;;8.57;5.25;;;11.40;99.90;;;;;;4992157;28;20034;-75
2023/04/22 02:48:26;;;;;;;6.63;4.18;;;11.40;99.90;;;;;;4991172;28;20188;-75
2023/04/22 02:50:52;;;;;;;8.20;4.35;;;11.40;99.90;;;;;;4986581;28;20108;-75
2023/04/22 02:53:20;;;;;;;6.55;4.53;;;11.30;99.90;;;;;;4994607;28;20054;-76
2023/04/22 02:55:54;;;;;;;7.45;3.97;;;11.30;99.90;;;;;;4995030;28;20040;-76
2023/04/22 02:58:20;;;;;;;6.97;4.43;;;11.30;99.90;;;;;;4991394;28;20055;-75
2023/04/22 03:00:45;;;;;;;5.57;4.25;;;11.20;99.90;;;;;;4985745;28;20054;-76
2023/04/22 03:03:14;;;;;;;8.93;4.97;;;11.20;99.90;;;;;;4988966;28;20022;-76
2023/04/22 03:05:43;;;;;;;9.60;4.60;;;11.20;99.90;;;;;;4988364;28;20041;-76
2023/04/22 03:08:11;;;;;;;11.27;5.40;;;11.10;99.90;;;;;;4986197;28;20089;-78
2023/04/22 03:10:40;;;;;;;6.88;4.90;;;11.10;99.90;;;;;;4987025;28;20041;-76
2023/04/22 03:13:14;;;;;;;10.23;5.22;;;11.00;99.90;;;;;;4996335;28;20034;-76
2023/04/22 03:15:40;;;;;;;8.48;4.78;;;11.00;99.90;;;;;;4997362;28;20032;-76
2023/04/22 03:18:09;;;;;;;7.20;4.82;;;11.00;99.90;;;;;;4990781;28;20034;-76
2023/04/22 03:20:40;;;;;;;7.60;4.88;;;10.90;99.90;;;;;;4996559;28;20029;-76
2023/04/22 03:23:09;;;;;;;8.85;5.30;;;10.90;99.90;;;;;;4995854;28;20033;-76
2023/04/22 03:25:35;;;;;;;7.13;4.80;;;10.90;99.90;;;;;;4988972;28;20057;-75
2023/04/22 03:28:01;;;;;;;7.93;4.63;;;10.90;99.90;;;;;;5003859;28;20439;-75
2023/04/22 03:30:39;;;;;;;8.38;4.30;;;10.90;99.90;;;;;;4987864;28;20021;-76
2023/04/22 03:33:11;;;;;;;7.70;4.13;;;10.90;99.90;;;;;;4995104;28;20044;-75
2023/04/22 03:35:37;;;;;;;6.68;4.10;;;10.90;99.90;;;;;;4998889;28;20032;-73
2023/04/22 03:38:03;;;;;;;6.13;3.92;;;10.90;99.90;;;;;;4993348;28;20357;-74
2023/04/22 03:40:28;;;;;;;5.80;3.78;;;10.90;99.90;;;;;;4990570;28;20039;-75
2023/04/22 03:43:02;;;;;;;5.78;4.20;;;10.80;99.90;;;;;;4987004;28;20110;-75
2023/04/22 03:45:28;;;;;;;8.95;4.95;;;10.80;99.90;;;;;;4990893;28;20019;-74
2023/04/22 03:47:58;;;;;;;12.38;5.35;;;10.80;99.90;;;;;;4993813;28;20034;-76
2023/04/22 03:50:39;;;;;;;7.82;4.53;;;10.80;99.90;;;;;;4998302;28;20040;-76
2023/04/22 03:53:04;;;;;;;7.00;4.60;;;10.70;99.90;;;;;;4998859;28;20038;-75
2023/04/22 03:55:36;;;;;;;7.80;4.75;;;10.70;99.90;;;;;;4995602;28;20045;-75
2023/04/22 03:58:02;;;;;;;6.80;4.57;;;10.70;99.90;;;;;;4994884;28;20471;-75
2023/04/22 04:00:31;;;;;;;9.50;4.97;;;10.70;99.90;;;;;;4996464;28;20026;-75
2023/04/22 04:02:57;;;;;;;6.88;4.45;;;10.70;99.90;;;;;;4993399;28;20048;-76
2023/04/22 04:05:26;;;;;;;8.85;4.80;;;10.70;99.90;;;;;;4991439;28;20022;-75
2023/04/22 04:07:52;;;;;;;7.75;5.15;;;10.70;99.90;;;;;;4991124;28;20480;-75
2023/04/22 04:10:17;;;;;;;6.28;4.28;;;10.70;99.90;;;;;;5009656;28;20072;-75
2023/04/22 04:12:46;;;;;;;9.35;5.47;;;10.60;99.90;;;;;;4992763;28;20518;-76
2023/04/22 04:15:12;;;;;;;6.38;4.40;;;10.60;99.90;;;;;;4992303;28;20053;-78
2023/04/22 04:17:43;;;;;;;8.35;4.95;;;10.60;99.90;;;;;;4992981;28;20042;-75
2023/04/22 04:20:09;;;;;;;6.32;4.40;;;10.50;99.90;;;;;;4990447;28;20040;-76
2023/04/22 04:22:35;;;;;;;4.95;3.85;;;10.50;99.90;;;;;;5002152;28;20022;-77
2023/04/22 04:25:04;;;;;;;5.72;4.10;;;10.50;99.90;;;;;;4996764;28;20025;-77
2023/04/22 04:27:33;;;;;;;7.93;3.78;;;10.40;99.90;;;;;;4998534;28;20023;-75
2023/04/22 04:30:02;;;;;;;4.75;3.13;;;10.40;99.90;;;;;;4993156;28;20387;-75
2023/04/22 04:32:28;;;;;;;7.18;3.85;;;10.40;99.90;;;;;;5005503;28;20034;-74
2023/04/22 04:35:06;;;;;;;6.93;4.35;;;10.30;99.90;;;;;;4987532;28;20388;-75
2023/04/22 04:37:32;;;;;;;6.40;3.67;;;10.30;99.90;;;;;;4989393;28;20034;-75
2023/04/22 04:40:01;;;;;;;5.38;3.65;;;10.30;99.90;;;;;;4997165;28;20022;-75
2023/04/22 04:42:36;;;;;;;4.82;3.42;;;10.30;99.90;;;;;;5006627;28;20535;-75
2023/04/22 04:45:06;;;;;;;5.20;3.95;;;10.30;99.90;;;;;;4990433;28;20026;-75
2023/04/22 04:47:32;;;;;;;5.10;3.95;;;10.30;99.90;;;;;;4996539;28;20384;-75
2023/04/22 04:49:59;;;;;;;7.07;3.72;;;10.30;99.90;;;;;;4996816;28;20026;-73
2023/04/22 04:52:28;;;;;;;7.22;4.13;;;10.30;99.90;;;;;;5010701;28;20030;-76
2023/04/22 04:54:54;;;;;;;9.35;4.45;;;10.30;99.90;;;;;;4996703;28;20045;-76
2023/04/22 04:57:19;;;;;;;7.90;4.45;;;10.30;99.90;;;;;;4997040;28;20027;-78
2023/04/22 04:59:48;;;;;;;6.95;4.50;;;10.40;99.90;;;;;;4993452;28;20034;-76
2023/04/22 05:02:17;;;;;;;8.60;4.60;;;10.40;99.90;;;;;;4994347;28;20073;-77
2023/04/22 05:04:45;;;;;;;6.47;4.40;;;10.40;99.90;;;;;;5008061;28;20111;-77
2023/04/22 05:07:11;;;;;;;6.60;3.85;;;10.40;99.90;;;;;;4998574;28;20176;-78
2023/04/22 05:09:40;;;;;;;5.28;4.20;;;10.40;99.90;;;;;;4999121;28;20022;-79
2023/04/22 05:12:11;;;;;;;5.05;3.30;;;10.40;99.90;;;;;;5001890;28;20030;-78
2023/04/22 05:14:52;;;;;;;5.07;3.70;;;10.40;99.90;;;;;;5003861;28;20030;-77
2023/04/22 05:17:19;;;;;;;10.18;4.15;;;10.40;99.90;;;;;;4994892;28;20066;-74
2023/04/22 05:19:48;;;;;;;6.30;3.60;;;10.40;99.90;;;;;;4993036;28;20041;-76
2023/04/22 05:22:13;;;;;;;6.28;4.03;;;10.50;99.90;;;;;;4995809;28;20030;-77
2023/04/22 05:24:39;;;;;;;11.15;4.20;;;10.50;99.90;;;;;;4996757;28;20033;-76
2023/04/22 05:27:11;;;;;;;6.93;4.30;;;10.50;99.90;;;;;;5004979;28;20463;-77
2023/04/22 05:29:39;;;;;;;10.98;4.40;;;10.50;99.90;;;;;;4998163;28;20034;-77
2023/04/22 05:32:07;;;;;;;8.23;4.22;;;10.60;99.90;;;;;;5008282;28;20037;-76
2023/04/22 05:34:42;;;;;;;7.38;4.25;;;10.60;99.90;;;;;;4999251;28;20255;-75
2023/04/22 05:37:14;;;;;;;7.18;4.07;;;10.60;99.90;;;;;;4994806;28;20022;-77
2023/04/22 05:39:45;;;;;;;7.47;4.32;;;10.70;99.90;;;;;;4994484;28;20027;-75
2023/04/22 05:42:14;;;;;;;7.00;4.55;;;10.70;99.90;;;;;;4997893;28;20002;-75
2023/04/22 05:44:43;;;;;;;6.28;4.20;;;10.80;99.90;;;;;;4993852;28;20026;-76
2023/04/22 05:47:08;;;;;;;5.28;3.97;;;10.80;99.90;;;;;;4996390;28;20105;-77
2023/04/22 05:49:37;;;;;;;7.22;4.78;;;10.80;99.90;;;;;;4993336;28;20507;-77
2023/04/22 05:52:06;;;;;;;6.25;4.18;;;10.90;99.90;;;;;;4995968;28;20056;-76
2023/04/22 05:54:31;;;;;;;5.65;4.10;;;11.00;99.90;;;;;;4994987;28;20062;-77
2023/04/22 05:56:57;;;;;;;8.32;4.38;;;11.00;99.90;;;;;;4991495;28;20042;-77
2023/04/22 05:59:23;;;;;;;7.50;4.00;;;11.10;99.90;;;;;;4992608;28;20113;-75
2023/04/22 06:01:49;;;;;;;7.80;4.43;;;11.20;99.90;;;;;;4997616;28;20460;-76
2023/04/22 06:04:17;;;;;;;7.82;4.93;;;11.20;99.90;;;;;;4995641;28;20019;-77
2023/04/22 06:06:43;;;;;;;8.70;4.55;;;11.30;99.90;;;;;;4998523;28;20038;-75
2023/04/22 06:09:14;;;;;;;5.88;4.43;;;11.40;99.90;;;;;;4991469;28;20344;-77
2023/04/22 06:11:40;;;;;;;9.10;4.57;;;11.40;99.90;;;;;;4996060;28;20037;-77
2023/04/22 06:14:06;;;;;;;8.43;5.10;;;11.50;99.90;;;;;;4996271;28;20456;-76
2023/04/22 06:16:32;;;;;;;7.85;4.72;;;11.60;99.90;;;;;;4995711;28;20045;-76
2023/04/22 06:18:58;;;;;;;8.82;5.10;;;11.70;99.90;;;;;;4995613;28;20030;-76
2023/04/22 06:21:38;;;;;;;12.20;5.88;;;11.70;99.90;;;;;;4994018;28;20042;-77
2023/04/22 06:24:10;;;;;;;12.68;6.43;;;11.80;99.90;;;;;;4992001;28;20027;-77
2023/04/22 06:26:36;;;;;;;12.50;8.88;;;11.90;99.90;;;;;;4992173;28;20475;-77
2023/04/22 06:29:05;;;;;;;12.35;7.57;;;12.00;99.90;;;;;;4995860;28;20375;-76
2023/04/22 06:31:31;;;;;;;11.70;7.97;;;12.00;99.90;;;;;;4993178;28;20037;-76
2023/04/22 06:33:57;;;;;;;12.05;9.02;;;12.10;99.90;;;;;;5005224;28;20125;-76
2023/04/22 06:36:23;;;;;;;12.25;10.38;;;12.20;99.90;;;;;;4997686;28;20389;-76
2023/04/22 06:38:48;;;;;;;11.40;8.38;;;12.20;99.90;;;;;;4995615;28;20046;-76
2023/04/22 06:41:15;;;;;;;13.05;7.38;;;12.20;99.90;;;;;;5004124;28;20026;-77
2023/04/22 06:43:40;;;;;;;13.45;7.20;;;12.20;99.90;;;;;;4996419;28;20061;-76
2023/04/22 06:46:09;;;;;;;8.75;6.68;;;12.20;99.90;;;;;;5005768;28;20014;-77
2023/04/22 06:48:35;;;;;;;10.60;6.05;;;12.30;99.90;;;;;;4992192;28;20030;-77
2023/04/22 06:51:01;;;;;;;10.38;5.85;;;12.30;99.90;;;;;;4992093;28;20034;-76
2023/04/22 06:53:29;;;;;;;8.02;5.30;;;12.40;99.90;;;;;;4992723;28;20022;-77
2023/04/22 06:55:58;;;;;;;6.88;4.85;;;12.40;99.90;;;;;;4999517;28;20072;-77
2023/04/22 06:58:23;;;;;;;9.00;5.05;;;12.40;99.90;;;;;;5002814;28;20077;-76
2023/04/22 07:00:49;;;;;;;6.28;4.80;;;12.40;99.90;;;;;;5000710;28;20112;-76
2023/04/22 07:03:15;;;;;;;7.30;4.95;;;12.50;99.90;;;;;;5001358;28;20378;-76
2023/04/22 07:05:41;;;;;;;8.48;4.78;;;12.50;99.90;;;;;;4993128;28;20026;-76
2023/04/22 07:08:06;;;;;;;8.50;5.07;;;12.50;99.90;;;;;;4990865;28;20484;-76
2023/04/22 07:10:33;;;;;;;9.80;5.82;;;12.60;99.90;;;;;;4995588;28;20030;-76
2023/04/22 07:12:58;;;;;;;9.70;5.32;;;12.60;99.90;;;;;;4993297;28;20037;-77
2023/04/22 07:15:24;;;;;;;7.53;4.63;;;12.60;99.90;;;;;;4996822;28;20026;-77
2023/04/22 07:17:52;;;;;;;10.90;5.35;;;12.70;99.90;;;;;;4998028;28;20164;-76
2023/04/22 07:20:24;;;;;;;7.85;5.15;;;12.70;99.90;;;;;;4997600;28;20046;-77
2023/04/22 07:22:50;;;;;;;8.02;5.28;;;12.80;99.90;;;;;;5007969;28;20042;-77
2023/04/22 07:25:15;;;;;;;10.48;5.10;;;12.80;99.90;;;;;;4997727;28;20395;-77
2023/04/22 07:27:44;;;;;;;8.38;4.78;;;12.90;99.90;;;;;;5003121;28;20022;-77
2023/04/22 07:30:28;;;;;;;9.70;5.25;;;13.00;99.90;;;;;;4991957;28;20110;-77
2023/04/22 07:33:00;;;;;;;9.55;5.88;;;13.00;99.90;;;;;;5002114;28;20025;-77
2023/04/22 07:35:31;;;;;;;9.13;5.65;;;13.10;99.90;;;;;;4997851;28;20053;-77
2023/04/22 07:37:59;;;;;;;8.32;4.72;;;13.20;99.90;;;;;;4999365;28;20038;-77
2023/04/22 07:40:25;;;;;;;10.65;4.97;;;13.30;99.90;;;;;;4998963;28;20026;-77
2023/04/22 07:42:51;;;;;;;8.32;4.97;;;13.30;99.90;;;;;;5013184;28;20035;-77
2023/04/22 07:45:23;;;;;;;10.02;5.20;;;13.40;99.90;;;;;;5003633;28;20015;-77
2023/04/22 07:47:57;;;;;;;7.80;4.90;;;13.50;99.90;;;;;;5001590;28;20034;-77
2023/04/22 07:50:23;;;;;;;11.98;5.68;;;13.50;99.90;;;;;;5003018;28;20037;-76
2023/04/22 07:52:49;;;;;;;8.75;4.97;;;13.60;99.90;;;;;;5017073;28;20056;-75
2023/04/22 07:55:15;;;;;;;7.43;4.95;;;13.60;99.90;;;;;;5002481;28;20030;-77
2023/04/22 07:57:43;;;;;;;10.45;5.45;;;13.70;99.90;;;;;;5018605;28;20054;-77
2023/04/22 08:00:10;;;;;;;7.03;4.78;;;13.70;99.90;;;;;;4996068;28;20282;-77
2023/04/22 08:02:47;;;;;;;8.80;5.20;;;13.80;99.90;;;;;;4997125;28;20056;-76
2023/04/22 08:05:13;;;;;;;9.38;5.05;;;13.80;99.90;;;;;;4996482;28;20113;-76
2023/04/22 08:07:41;;;;;;;9.38;4.93;;;13.80;99.90;;;;;;4993718;28;20065;-76
2023/04/22 08:10:08;;;;;;;7.13;4.35;;;13.90;99.90;;;;;;4991461;28;20073;-77
2023/04/22 08:12:34;;;;;;;4.82;3.78;;;14.00;99.90;;;;;;4994499;28;20038;-77
2023/04/22 08:14:59;;;;;;;8.65;5.05;;;14.00;99.90;;;;;;4995726;28;20027;-77
2023/04/22 08:17:26;;;;;;;6.95;4.57;;;14.10;99.90;;;;;;4993583;28;20450;-76
2023/04/22 08:20:01;;;;;;;8.02;3.95;;;14.20;99.90;;;;;;4993459;28;20033;-77
2023/04/22 08:22:32;;;;;;;6.88;4.50;;;14.30;99.90;;;;;;4994927;28;20054;-77
2023/04/22 08:24:59;;;;;;;7.15;4.13;;;14.40;99.90;;;;;;4997799;28;20029;-76
2023/04/22 08:27:31;;;;;;;5.78;4.18;;;14.50;99.90;;;;;;4999796;28;20081;-78
2023/04/22 08:29:57;;;;;;;5.88;4.00;;;14.60;99.90;;;;;;4999016;28;20117;-77
2023/04/22 08:32:28;;;;;;;7.03;3.97;;;14.70;99.90;;;;;;5003492;28;20030;-76
2023/04/22 08:34:57;;;;;;;5.45;3.92;;;14.80;99.90;;;;;;4997206;28;20027;-77
2023/04/22 08:37:22;;;;;;;8.02;4.57;;;14.80;99.90;;;;;;5011565;28;20757;-79
2023/04/22 08:39:57;;;;;;;11.43;4.65;;;14.90;99.90;;;;;;5011062;28;20034;-77
2023/04/22 08:42:23;;;;;;;8.15;4.15;;;15.00;99.90;;;;;;5012400;28;20105;-77
2023/04/22 08:44:49;;;;;;;7.07;4.32;;;15.10;99.90;;;;;;5009612;28;20058;-77
2023/04/22 08:47:15;;;;;;;6.22;4.22;;;15.20;99.90;;;;;;5000182;28;20361;-75
2023/04/22 08:49:45;;;;;;;6.47;3.90;;;15.20;99.90;;;;;;4997845;28;20092;-77
2023/04/22 08:52:14;;;;;;;6.60;3.72;;;15.30;99.90;;;;;;4998378;28;20081;-77
2023/04/22 08:54:43;;;;;;;8.48;4.40;;;15.30;99.90;;;;;;4995943;28;20036;-78
2023/04/22 08:57:10;;;;;;;5.57;3.35;;;15.40;99.90;;;;;;5005441;28;20113;-77
2023/04/22 08:59:37;;;;;;;6.60;3.58;;;15.50;99.90;;;;;;4994415;28;20121;-77
2023/04/22 09:02:12;;;;;;;5.93;3.67;;;15.50;99.90;;;;;;4994255;28;20382;-77
2023/04/22 09:04:40;;;;;;;5.90;3.58;;;15.60;99.90;;;;;;4993096;28;20023;-76
2023/04/22 09:07:17;;;;;;;6.93;3.75;;;15.70;99.90;;;;;;4998408;28;20017;-76
2023/04/22 09:09:50;;;;;;;8.98;3.55;;;15.70;99.90;;;;;;5001826;28;20056;-77
2023/04/22 09:12:34;;;;;;;5.15;3.53;;;15.80;99.90;;;;;;4989171;28;20475;-76
2023/04/22 09:14:59;;;;;;;;;;;15.90;99.90;;;;;;4995512;28;20023;-76
2023/04/22 09:17:33;;;;;;;3.83;2.63;;;16.00;99.90;;;;;;4997540;28;19939;-77
2023/04/22 09:20:00;;;;;;;5.35;3.67;;;16.10;99.90;;;;;;5009852;28;20380;-76
2023/04/22 09:22:27;;;;;;;5.32;3.15;;;16.30;99.90;;;;;;4999399;28;20023;-77
2023/04/22 09:25:16;;;;;;;3.58;2.50;;;16.30;99.90;;;;;;5004575;28;20026;-77
2023/04/22 09:28:08;;;;;;;3.45;2.67;;;16.40;99.90;;;;;;5017592;28;20026;-77
2023/04/22 09:30:36;;;;;;;6.13;2.50;;;16.50;99.90;;;;;;4995496;28;20051;-77
2023/04/22 09:33:04;;;;;;;5.00;2.53;;;16.60;99.90;;;;;;5000686;28;20022;-74
2023/04/22 09:35:35;;;;;;;3.17;2.53;;;16.70;99.90;;;;;;4999254;28;20064;-78
2023/04/22 09:38:03;;;;;;;3.95;2.55;;;16.80;99.90;;;;;;4996753;28;20030;-77
2023/04/22 09:40:29;;;;;;;3.22;2.08;;;16.80;99.90;;;;;;4995220;28;20027;-77
2023/04/22 09:43:00;;;;;;;5.72;2.05;;;16.90;99.90;;;;;;5001206;28;20443;-77
2023/04/22 09:45:36;;;;;;;4.13;2.30;;;17.00;99.90;;;;;;4998963;28;20030;-77
2023/04/22 09:48:11;;;;;;;3.88;2.28;;;17.10;99.90;;;;;;4993004;28;20026;-75
2023/04/22 09:50:49;;;;;;;5.50;2.40;;;17.30;99.90;;;;;;4994044;28;20036;-76
2023/04/22 09:53:17;;;;;;;2.80;2.25;;;17.40;99.90;;;;;;5002437;28;20018;-77
2023/04/22 09:55:46;;;;;;;5.00;2.50;;;17.40;99.90;;;;;;4994462;28;20022;-78
2023/04/22 09:58:26;;;;;;;4.00;2.38;;;17.40;99.90;;;;;;5013292;28;20035;-78
2023/04/22 10:00:55;;;;;;;4.28;2.30;;;17.50;99.90;;;;;;5018207;28;20415;-77
2023/04/22 10:03:36;;;;;;;4.63;2.75;;;17.60;99.90;;;;;;4999627;28;20121;-77
2023/04/22 10:06:11;;;;;;;9.80;2.33;;;17.60;99.90;;;;;;4999638;28;20019;-78
2023/04/22 10:08:37;;;;;;;3.85;2.15;;;17.70;99.90;;;;;;4999181;28;20019;-77
2023/04/22 10:11:06;;;;;;;3.50;2.60;;;17.80;99.90;;;;;;4995094;28;20098;-78
2023/04/22 10:13:37;;;;;;;4.28;2.67;;;17.90;99.90;;;;;;4997637;28;20034;-77
2023/04/22 10:16:06;;;;;;;2.83;2.00;;;18.00;99.90;;;;;;4995581;28;20061;-77
2023/04/22 10:18:34;;;;;;;3.47;2.17;;;18.10;99.90;;;;;;4994323;28;20038;-78
2023/04/22 10:21:03;;;;;;;3.25;1.95;;;18.10;99.90;;;;;;5014941;28;20026;-76
2023/04/22 10:23:32;;;;;;;5.63;2.15;;;18.10;99.50;;;;;;5016303;28;20034;-76
2023/04/22 10:26:04;;;;;;;4.25;2.05;;;18.10;99.00;;;;;;5013837;28;20022;-77
2023/04/22 10:28:31;;;;;;;2.38;1.70;;;18.20;98.80;;;;;;5017371;28;20144;-78
2023/04/22 10:31:24;;;;;;;3.58;2.30;;;18.30;98.60;;;;;;5018854;28;20499;-77
2023/04/22 10:34:10;;;;;;;3.65;1.75;;;18.40;98.20;;;;;;5019198;28;20204;-77
2023/04/22 10:37:17;;;;;;;3.58;2.10;;;18.40;98.40;;;;;;5017769;28;20217;-77
2023/04/22 10:40:16;;;;;;;3.25;1.77;;;18.60;97.40;;;;;;4978293;28;20261;-76
2023/04/22 10:42:48;;;;;;;3.53;1.67;;;18.60;96.80;;;;;;4956080;29;20184;-77
2023/04/22 10:45:14;;;;;;;5.32;2.05;;;18.70;96.40;;;;;;4987393;28;20042;-75
2023/04/22 10:47:46;;;;;;;4.53;2.17;;;18.80;95.80;;;;;;4999304;23;20066;-76
2023/04/22 10:50:26;;;;;;;3.25;2.00;;;18.90;94.80;;;;;;4991352;28;20037;-74
2023/04/22 10:53:44;;;;;;;3.95;1.60;;;19.00;94.50;;;;;;4992166;28;20058;-75
2023/04/22 10:56:19;;;;;;;4.70;2.63;;;19.00;93.70;;;;;;4990315;28;20031;-74
2023/04/22 10:58:45;;;;;;;5.00;2.00;;;19.10;92.70;;;;;;4974995;28;20033;-75
2023/04/22 11:01:14;;;;;;;2.83;1.83;;;19.20;92.70;;;;;;4973353;28;20035;-74
2023/04/22 11:03:40;;;;;;;3.65;1.60;;;19.40;91.70;;;;;;4987309;28;20051;-75
2023/04/22 11:06:14;;;;;;;7.18;3.63;;;19.70;90.60;;;;;;4972828;28;20489;-75
2023/04/22 11:08:44;;;;;;;3.50;1.70;;;19.70;85.70;;;;;;4970530;28;20369;-75
2023/04/22 11:11:15;;;;;;;2.75;1.60;;;19.80;84.60;;;;;;4965351;28;20130;-75
2023/04/22 11:13:44;;;;;;;2.15;1.42;;;19.80;83.70;;;;;;4973268;28;20031;-76
2023/04/22 11:16:13;;;;;;;4.53;1.45;;;20.00;84.40;;;;;;4985193;28;20476;-77
2023/04/22 11:18:48;;;;;;;7.43;3.08;;;20.10;81.60;;;;;;4972386;28;20392;-77
2023/04/22 11:21:14;;;;;;;3.53;1.80;;;20.10;81.60;;;;;;4975901;28;20427;-74
2023/04/22 11:23:52;;;;;;;3.58;1.80;;;20.20;81.40;;;;;;4967100;28;20023;-77
2023/04/22 11:26:18;;;;;;;12.60;3.95;;;20.20;81.50;;;;;;4970568;28;21003;-76
2023/04/22 11:28:47;;;;;;;11.02;4.30;;;20.20;81.40;;;;;;4969978;28;20039;-76
2023/04/22 11:31:13;;;;;;;5.35;3.22;;;20.20;81.40;;;;;;4969130;28;20096;-76
2023/04/22 11:33:40;;;;;;;4.50;2.00;;;20.20;82.60;;;;;;4968233;28;20561;-76
2023/04/22 11:36:10;;;;;;;3.45;1.85;;;20.20;81.60;;;;;;4973625;28;20066;-75
2023/04/22 11:38:36;;;;;;;4.75;1.90;;;20.20;81.80;;;;;;4953434;28;20031;-76
2023/04/22 11:41:21;;;;;;;5.00;2.25;;;20.20;82.00;;;;;;4972002;28;20058;-76
2023/04/22 11:43:53;;;;;;;6.65;2.38;;;20.20;81.30;;;;;;4972593;28;20027;-76
2023/04/22 11:46:38;;;;;;;5.60;1.70;;;20.40;80.20;;;;;;4974523;28;20522;-75
2023/04/22 11:49:16;;;;;;;3.78;1.70;;;20.50;78.20;;;;;;4971021;28;20034;-76
2023/04/22 11:51:55;;;;;;;6.32;1.80;;;20.70;78.50;;;;;;4974667;28;20380;-76
2023/04/22 11:54:37;;;;;;;4.47;1.77;;;20.80;75.40;;;;;;4983793;28;20027;-76
2023/04/22 11:57:07;;;;;;;5.47;1.50;;;20.90;75.70;;;;;;4975527;28;20134;-76
2023/04/22 11:59:36;;;;;;;2.53;1.80;;;21.00;75.00;;;;;;4971793;28;20070;-77
2023/04/22 12:02:16;;;;;;;4.78;2.00;;;21.10;73.90;;;;;;4969828;28;20027;-74
2023/04/22 12:04:42;;;;;;;2.47;1.48;;;21.10;73.50;;;;;;4974093;28;20506;-76
2023/04/22 12:07:11;;;;;;;5.63;1.70;;;21.20;73.30;;;;;;4969480;28;20113;-76
2023/04/22 12:09:38;;;;;;;3.90;1.45;;;21.30;73.90;;;;;;4964892;28;20026;-76
2023/04/22 12:12:06;;;;;;;2.20;1.20;;;21.30;73.50;;;;;;4969159;28;20077;-75
2023/04/22 12:14:45;;;;;;;5.53;2.30;;;21.40;72.60;;;;;;4972649;28;20072;-75
2023/04/22 12:17:22;;;;;;;4.00;2.03;;;21.50;72.80;;;;;;4969798;28;20062;-75
2023/04/22 12:19:47;;;;;;;3.30;1.70;;;21.50;73.10;;;;;;4983875;28;20035;-76
2023/04/22 12:22:24;;;;;;;5.85;1.63;;;21.50;72.90;;;;;;4974156;28;20026;-75
2023/04/22 12:25:08;;;;;;;4.55;1.70;;;21.40;72.30;;;;;;4973135;28;20030;-76
2023/04/22 12:27:34;;;;;;;3.58;1.83;;;21.40;72.10;;;;;;4985737;28;20023;-76
2023/04/22 12:30:04;;;;;;;2.60;1.38;;;21.40;72.30;;;;;;4974395;28;20061;-76
2023/04/22 12:32:29;;;;;;;3.22;2.00;;;21.50;72.20;;;;;;4971150;28;20531;-76
2023/04/22 12:35:01;;;;;;;2.90;1.50;;;21.50;71.90;;;;;;4970663;28;20027;-76
2023/04/22 12:37:29;;;;;;;6.72;2.05;;;21.40;71.70;;;;;;4967848;28;20037;-75
2023/04/22 12:39:58;;;;;;;3.22;1.90;;;21.40;71.50;;;;;;4971513;28;20038;-76
2023/04/22 12:42:24;;;;;;;5.93;1.83;;;21.40;72.10;;;;;;4969699;28;20038;-75
2023/04/22 12:44:50;;;;;;;3.42;1.55;;;21.40;71.30;;;;;;4968901;28;20176;-76
2023/04/22 12:47:16;;;;;;;3.63;1.52;;;21.40;71.20;;;;;;4988889;28;20073;-77
2023/04/22 12:49:46;;;;;;;4.63;1.40;;;21.40;71.00;;;;;;4972200;28;20122;-76
2023/04/22 12:52:11;;;;;;;4.60;1.67;;;21.50;69.50;;;;;;4982173;28;20376;-74
2023/04/22 12:54:40;;;;;;;2.80;1.58;;;21.50;69.50;;;;;;4968972;28;20039;-75
2023/04/22 12:57:09;;;;;;;2.60;1.60;;;21.50;69.10;;;;;;4971010;28;20029;-75
2023/04/22 12:59:37;;;;;;;3.50;1.63;;;21.60;69.00;;;;;;4967770;28;20038;-75